createdAt,value
2019-03-29T00:02:22.304Z,19.07
2019-03-29T00:04:55.730Z,18.67
2019-03-29T00:07:38.544Z,17.62
2019-03-29T00:09:57.022Z,17.90
2019-03-29T00:12:37.559Z,17.90
2019-03-29T00:15:10.377Z,18.90
2019-03-29T00:20:47.951Z,20.92
2019-03-29T00:26:56.833Z,17.85
2019-03-29T00:29:30.739Z,17.15
2019-03-29T00:32:15.195Z,17.23
2019-03-29T00:38:38.887Z,17.70
2019-03-29T00:44:28.200Z,16.50
2019-03-29T00:50:22.875Z,15.58
2019-03-29T00:53:46.207Z,16.10
2019-03-29T00:56:16.145Z,15.20
2019-03-29T00:58:49.112Z,14.13
2019-03-29T01:01:26.423Z,16.48
2019-03-29T01:04:42.116Z,16.05
2019-03-29T01:07:20.892Z,15.93
2019-03-29T01:09:53.970Z,14.38
2019-03-29T01:15:45.942Z,13.68
2019-03-29T01:18:18.540Z,15.78
2019-03-29T01:20:54.555Z,14.53
2019-03-29T01:31:10.106Z,14.20
2019-03-29T01:33:57.918Z,14.55
2019-03-29T01:36:49.227Z,14.60
2019-03-29T01:40:09.831Z,14.33
2019-03-29T02:19:02.062Z,13.88
2019-03-29T02:21:37.663Z,13.60
2019-03-29T02:32:27.287Z,16.80
2019-03-29T02:35:06.773Z,15.48
2019-03-29T02:41:01.561Z,14.45
2019-03-29T02:43:31.611Z,14.93
2019-03-29T02:50:40.912Z,14.35
2019-03-29T02:56:56.003Z,14.68
2019-03-29T03:00:22.169Z,14.07
2019-03-29T03:10:24.374Z,13.60
2019-03-29T03:27:29.262Z,11.20
2019-03-29T03:30:51.756Z,13.60
2019-03-29T03:37:02.192Z,12.68
2019-03-29T03:43:19.912Z,13.35
2019-03-29T03:43:21.572Z,14.07
2019-03-29T03:49:23.402Z,13.08
2019-03-29T03:52:25.359Z,12.73
2019-03-29T03:57:21.433Z,12.78
2019-03-29T03:59:53.287Z,12.30
2019-03-29T04:02:32.041Z,12.80
2019-03-29T04:05:05.089Z,13.68
2019-03-29T04:17:10.944Z,12.65
2019-03-29T04:17:19.393Z,13.10
2019-03-29T04:20:11.770Z,13.05
2019-03-29T04:22:42.916Z,12.30
2019-03-29T04:25:21.248Z,13.90
2019-03-29T04:28:19.609Z,14.20
2019-03-29T04:31:08.986Z,15.15
2019-03-29T04:33:39.607Z,15.10
2019-03-29T04:36:18.247Z,15.60
2019-03-29T04:38:52.975Z,17.32
2019-03-29T04:41:25.011Z,13.90
2019-03-29T04:46:52.265Z,14.15
2019-03-29T04:49:24.508Z,13.35
2019-03-29T04:52:04.190Z,13.05
2019-03-29T05:02:49.922Z,12.68
2019-03-29T05:05:41.832Z,13.18
2019-03-29T05:08:33.080Z,14.28
2019-03-29T05:11:18.236Z,12.33
2019-03-29T05:14:42.952Z,13.65
2019-03-29T05:16:45.386Z,13.35
2019-03-29T05:19:15.397Z,12.93
2019-03-29T05:21:54.294Z,12.25
2019-03-29T05:24:55.690Z,12.10
2019-03-29T05:27:24.033Z,12.03
2019-03-29T05:30:12.514Z,12.28
2019-03-29T05:33:30.803Z,12.58
2019-03-29T05:36:51.671Z,12.70
2019-03-29T05:39:50.973Z,12.50
2019-03-29T05:45:44.869Z,13.75
2019-03-29T05:48:36.150Z,13.00
2019-03-29T05:51:06.913Z,13.28
2019-03-29T05:56:46.128Z,13.93
2019-03-29T06:06:24.615Z,16.93
2019-03-29T06:09:30.356Z,16.87
2019-03-29T06:15:40.030Z,14.38
2019-03-29T06:18:35.140Z,15.80
2019-03-29T06:21:18.193Z,15.35
2019-03-29T06:23:49.714Z,14.50
2019-03-29T06:26:19.998Z,15.58
2019-03-29T06:28:49.602Z,17.23
2019-03-29T06:31:19.364Z,16.45
2019-03-29T06:33:48.956Z,17.85
2019-03-29T06:36:19.828Z,18.57
2019-03-29T06:38:51.633Z,17.73
2019-03-29T06:41:21.023Z,18.15
2019-03-29T06:43:50.518Z,18.15
2019-03-29T06:46:20.022Z,17.12
2019-03-29T06:48:49.637Z,17.15
2019-03-29T06:51:19.547Z,16.50
2019-03-29T06:53:52.369Z,15.83
2019-03-29T06:56:20.384Z,16.42
2019-03-29T06:58:49.870Z,17.52
2019-03-29T07:01:19.370Z,15.58
2019-03-29T07:03:49.188Z,18.73
2019-03-29T07:06:18.675Z,18.65
2019-03-29T07:08:48.260Z,17.55
2019-03-29T07:11:18.242Z,18.95
2019-03-29T07:13:57.339Z,17.67
2019-03-29T07:16:19.199Z,21.37
2019-03-29T07:18:48.739Z,18.65
2019-03-29T07:21:21.899Z,18.55
2019-03-29T07:23:49.981Z,19.37
2019-03-29T07:26:19.369Z,18.65
2019-03-29T07:28:48.888Z,18.37
2019-03-29T07:31:18.567Z,18.37
2019-03-29T07:33:47.994Z,19.40
2019-03-29T07:36:17.598Z,21.40
2019-03-29T07:38:47.317Z,18.10
2019-03-29T07:41:30.644Z,17.73
2019-03-29T07:43:48.473Z,16.93
2019-03-29T07:46:18.082Z,17.12
2019-03-29T07:48:47.602Z,18.30
2019-03-29T07:51:17.154Z,16.65
2019-03-29T07:53:46.802Z,16.77
2019-03-29T07:56:17.455Z,16.80
2019-03-29T07:58:46.938Z,15.70
2019-03-29T08:01:16.359Z,15.55
2019-03-29T08:03:45.775Z,14.80
2019-03-29T08:06:15.450Z,14.47
2019-03-29T08:08:44.949Z,13.10
2019-03-29T08:11:25.583Z,12.57
2019-03-29T08:13:45.759Z,11.60
2019-03-29T08:16:15.430Z,12.27
2019-03-29T08:18:44.971Z,13.10
2019-03-29T08:21:14.437Z,12.90
2019-03-29T08:23:43.827Z,11.93
2019-03-29T08:26:13.404Z,10.97
2019-03-29T08:28:42.894Z,9.90
2019-03-29T08:31:12.383Z,11.30
2019-03-29T08:33:41.867Z,9.87
2019-03-29T08:36:11.373Z,10.13
2019-03-29T08:38:41.025Z,12.03
2019-03-29T08:41:10.613Z,10.60
2019-03-29T08:43:40.160Z,10.30
2019-03-29T08:46:09.876Z,9.00
2019-03-29T08:48:39.310Z,9.80
2019-03-29T08:51:09.071Z,10.57
2019-03-29T08:53:38.653Z,10.40
2019-03-29T08:56:08.263Z,10.00
2019-03-29T08:58:37.875Z,10.50
2019-03-29T09:01:07.446Z,10.83
2019-03-29T09:03:37.543Z,10.00
2019-03-29T09:06:07.306Z,10.17
2019-03-29T09:08:36.800Z,10.37
2019-03-29T09:11:07.754Z,10.10
2019-03-29T09:13:37.543Z,11.60
2019-03-29T09:16:07.117Z,10.70
2019-03-29T09:18:36.656Z,11.97
2019-03-29T09:21:06.658Z,10.60
2019-03-29T09:23:36.226Z,11.10
2019-03-29T09:26:05.908Z,10.90
2019-03-29T09:28:35.387Z,11.00
2019-03-29T09:31:05.327Z,11.53
2019-03-29T09:33:35.348Z,11.90
2019-03-29T09:36:05.321Z,10.73
2019-03-29T09:38:35.046Z,10.70
2019-03-29T09:41:04.537Z,9.90
2019-03-29T09:43:34.017Z,11.23
2019-03-29T09:46:03.750Z,8.17
2019-03-29T09:48:34.710Z,10.30
2019-03-29T09:51:04.529Z,9.33
2019-03-29T09:53:33.950Z,10.13
2019-03-29T09:56:03.944Z,10.47
2019-03-29T09:58:33.405Z,10.53
2019-03-29T10:01:02.945Z,10.43
2019-03-29T10:03:32.532Z,10.20
2019-03-29T10:06:02.005Z,10.70
2019-03-29T10:08:31.497Z,10.83
2019-03-29T10:11:01.038Z,11.10
2019-03-29T10:13:30.630Z,10.57
2019-03-29T10:16:00.062Z,10.80
2019-03-29T10:18:29.645Z,10.70
2019-03-29T10:20:59.190Z,10.63
2019-03-29T10:23:28.683Z,9.90
2019-03-29T10:25:58.775Z,9.63
2019-03-29T10:28:28.570Z,10.80
2019-03-29T10:30:58.061Z,10.63
2019-03-29T10:33:27.666Z,11.00
2019-03-29T10:35:57.356Z,9.50
2019-03-29T10:38:26.792Z,12.17
2019-03-29T10:40:56.414Z,10.97
2019-03-29T10:43:25.818Z,10.67
2019-03-29T10:45:55.247Z,11.30
2019-03-29T10:48:24.893Z,9.83
2019-03-29T10:50:54.410Z,11.03
2019-03-29T10:53:24.066Z,9.57
2019-03-29T10:55:53.618Z,11.10
2019-03-29T10:58:23.136Z,10.40
2019-03-29T11:00:52.697Z,10.27
2019-03-29T11:03:22.160Z,8.90
2019-03-29T11:05:51.722Z,8.30
2019-03-29T11:08:21.543Z,7.93
2019-03-29T11:10:51.123Z,8.20
2019-03-29T11:13:20.513Z,8.97
2019-03-29T11:15:50.047Z,6.97
2019-03-29T11:18:19.627Z,8.87
2019-03-29T11:20:49.100Z,11.60
2019-03-29T11:23:18.505Z,11.00
2019-03-29T11:25:48.736Z,11.87
2019-03-29T11:28:18.689Z,10.83
2019-03-29T11:30:48.259Z,10.03
2019-03-29T11:33:17.835Z,9.83
2019-03-29T11:35:47.426Z,9.30
2019-03-29T11:38:17.037Z,8.67
2019-03-29T11:40:46.551Z,10.57
2019-03-29T11:43:26.638Z,9.57
2019-03-29T11:45:47.204Z,9.67
2019-03-29T11:48:16.718Z,9.23
2019-03-29T11:50:46.208Z,10.20
2019-03-29T11:53:15.785Z,10.43
2019-03-29T11:55:45.469Z,10.17
2019-03-29T11:58:15.120Z,10.40
2019-03-29T12:00:44.703Z,10.10
2019-03-29T12:03:15.174Z,9.13
2019-03-29T12:05:44.730Z,10.23
2019-03-29T12:08:14.296Z,9.13
2019-03-29T12:10:43.895Z,9.70
2019-03-29T12:13:13.619Z,9.13
2019-03-29T12:15:43.139Z,8.80
2019-03-29T12:18:12.641Z,8.77
2019-03-29T12:20:42.308Z,8.87
2019-03-29T12:23:11.901Z,8.73
2019-03-29T12:25:41.465Z,9.73
2019-03-29T12:28:11.064Z,8.93
2019-03-29T12:30:41.229Z,8.40
2019-03-29T12:33:10.779Z,9.47
2019-03-29T12:35:40.411Z,10.10
2019-03-29T12:38:10.167Z,9.17
2019-03-29T12:40:39.976Z,8.97
2019-03-29T12:43:12.405Z,8.50
2019-03-29T12:45:40.847Z,8.80
2019-03-29T12:48:10.420Z,9.33
2019-03-29T12:50:39.894Z,8.97
2019-03-29T12:53:09.441Z,8.10
2019-03-29T12:55:39.099Z,9.00
2019-03-29T12:58:08.713Z,8.50
2019-03-29T13:00:38.211Z,9.60
2019-03-29T13:03:07.852Z,8.67
2019-03-29T13:05:37.343Z,9.30
2019-03-29T13:08:06.880Z,8.77
2019-03-29T13:10:36.770Z,10.03
2019-03-29T13:13:06.412Z,8.70
2019-03-29T13:15:35.957Z,8.80
2019-03-29T13:18:05.737Z,10.10
2019-03-29T13:20:35.279Z,9.47
2019-03-29T13:23:08.246Z,8.70
2019-03-29T13:25:37.765Z,10.87
2019-03-29T13:28:07.364Z,11.03
2019-03-29T13:30:36.926Z,9.40
2019-03-29T13:33:06.463Z,9.40
2019-03-29T13:35:36.062Z,9.03
2019-03-29T13:38:05.664Z,10.30
2019-03-29T13:40:35.265Z,9.63
2019-03-29T13:43:04.995Z,8.63
2019-03-29T13:45:34.773Z,10.27
2019-03-29T13:48:04.406Z,10.20
2019-03-29T13:50:34.053Z,11.20
2019-03-29T13:53:03.702Z,9.43
2019-03-29T13:55:33.348Z,10.80
2019-03-29T13:58:03.202Z,11.53
2019-03-29T14:00:32.593Z,11.60
2019-03-29T14:03:02.276Z,9.77
2019-03-29T14:05:32.082Z,8.80
2019-03-29T14:08:01.616Z,10.70
2019-03-29T14:10:31.231Z,9.47
2019-03-29T14:13:00.851Z,8.47
2019-03-29T14:15:30.475Z,9.23
2019-03-29T14:18:00.024Z,8.80
2019-03-29T14:20:33.984Z,7.67
2019-03-29T14:23:04.775Z,9.83
2019-03-29T14:25:34.272Z,8.53
2019-03-29T14:28:03.934Z,9.80
2019-03-29T14:30:33.740Z,9.10
2019-03-29T14:33:03.413Z,8.83
2019-03-29T14:35:33.158Z,8.60
2019-03-29T14:38:02.876Z,7.87
2019-03-29T14:40:32.625Z,8.70
2019-03-29T14:43:02.252Z,8.50
2019-03-29T14:45:32.055Z,9.20
2019-03-29T14:48:01.625Z,8.73
2019-03-29T14:50:31.292Z,8.60
2019-03-29T14:53:00.979Z,9.67
2019-03-29T14:55:30.772Z,8.30
2019-03-29T14:58:00.583Z,7.60
2019-03-29T15:00:38.329Z,8.63
2019-03-29T15:03:08.233Z,7.50
2019-03-29T15:05:38.070Z,8.57
2019-03-29T15:08:07.799Z,8.40
2019-03-29T15:10:37.454Z,8.53
2019-03-29T15:13:07.225Z,8.33
2019-03-29T15:15:36.757Z,8.10
2019-03-29T15:18:06.372Z,8.80
2019-03-29T15:20:36.008Z,8.03
2019-03-29T15:23:05.837Z,6.80
2019-03-29T15:25:35.271Z,8.60
2019-03-29T15:28:04.862Z,8.07
2019-03-29T15:30:34.459Z,9.00
2019-03-29T15:33:04.095Z,7.90
2019-03-29T15:35:33.620Z,7.50
2019-03-29T15:38:03.218Z,7.60
2019-03-29T15:40:32.940Z,8.20
2019-03-29T15:43:02.726Z,8.20
2019-03-29T15:45:32.534Z,6.40
2019-03-29T15:48:02.214Z,8.13
2019-03-29T15:50:31.839Z,7.80
2019-03-29T15:53:01.464Z,7.27
2019-03-29T15:55:31.478Z,8.47
2019-03-29T15:58:01.165Z,8.57
2019-03-29T16:00:30.798Z,8.97
2019-03-29T16:03:00.400Z,9.27
2019-03-29T16:05:30.035Z,8.50
2019-03-29T16:07:59.886Z,8.57
2019-03-29T16:10:29.366Z,8.27
2019-03-29T16:12:59.044Z,8.80
2019-03-29T16:15:36.432Z,7.10
2019-03-29T16:17:59.935Z,7.60
2019-03-29T16:20:29.430Z,7.80
2019-03-29T16:22:59.121Z,9.10
2019-03-29T16:25:28.681Z,7.73
2019-03-29T16:27:58.411Z,8.50
2019-03-29T16:30:28.179Z,10.10
2019-03-29T16:32:57.830Z,7.97
2019-03-29T16:35:27.487Z,8.57
2019-03-29T16:37:57.876Z,8.17
2019-03-29T16:40:30.796Z,9.63
2019-03-29T16:42:58.808Z,9.00
2019-03-29T16:45:28.197Z,9.10
2019-03-29T16:47:57.718Z,9.57
2019-03-29T16:50:27.293Z,9.37
2019-03-29T16:52:57.047Z,9.60
2019-03-29T16:55:26.684Z,8.67
2019-03-29T16:57:56.504Z,8.40
2019-03-29T17:00:26.361Z,9.33
2019-03-29T17:02:55.998Z,8.60
2019-03-29T17:05:54.663Z,8.40
2019-03-29T17:08:27.868Z,8.90
2019-03-29T17:11:02.175Z,8.53
2019-03-29T17:13:34.849Z,8.10
2019-03-29T17:16:07.789Z,6.90
2019-03-29T17:18:42.975Z,8.30
2019-03-29T17:21:23.950Z,8.57
2019-03-29T17:26:33.707Z,8.00
2019-03-29T17:29:40.615Z,8.10
2019-03-29T17:32:14.021Z,9.90
2019-03-29T17:40:59.734Z,9.90
2019-03-29T17:43:35.221Z,8.80
2019-03-29T17:53:05.059Z,9.30
2019-03-29T18:11:38.519Z,10.23
2019-03-29T18:15:09.165Z,9.93
2019-03-29T18:31:23.467Z,9.87
2019-03-29T18:33:54.001Z,10.23
2019-03-29T18:36:24.680Z,9.37
2019-03-29T18:38:55.059Z,10.90
2019-03-29T18:41:25.200Z,10.23
2019-03-29T18:43:55.762Z,10.70
2019-03-29T18:46:26.595Z,10.23
2019-03-29T18:48:56.774Z,10.50
2019-03-29T18:51:26.688Z,10.00
2019-03-29T18:53:56.648Z,11.00
2019-03-29T18:56:29.468Z,11.07
2019-03-29T18:58:59.307Z,10.90
2019-03-29T19:01:30.265Z,11.33
2019-03-29T19:04:00.304Z,11.70
2019-03-29T19:06:30.647Z,13.90
2019-03-29T19:09:01.188Z,13.50
2019-03-29T19:11:31.100Z,11.10
2019-03-29T19:14:01.072Z,13.40
2019-03-29T19:16:31.454Z,14.63
2019-03-29T19:19:09.799Z,15.00
2019-03-29T19:21:33.368Z,14.27
2019-03-29T19:24:03.370Z,14.50
2019-03-29T19:26:33.565Z,15.90
2019-03-29T19:29:03.605Z,12.33
2019-03-29T19:31:34.082Z,14.77
2019-03-29T19:34:04.398Z,11.97
2019-03-29T19:36:34.398Z,15.03
2019-03-29T19:39:05.756Z,15.80
2019-03-29T19:41:35.854Z,14.57
2019-03-29T19:44:06.591Z,13.17
2019-03-29T19:46:41.230Z,14.60
2019-03-29T19:49:11.249Z,13.83
2019-03-29T19:51:41.187Z,14.87
2019-03-29T19:54:13.760Z,15.23
2019-03-29T19:56:44.818Z,12.73
2019-03-29T19:59:15.008Z,13.67
2019-03-29T20:01:45.681Z,13.67
2019-03-29T20:04:18.855Z,13.60
2019-03-29T20:06:51.716Z,11.80
2019-03-29T20:09:27.392Z,16.33
2019-03-29T20:11:57.774Z,17.60
2019-03-29T20:14:27.829Z,18.40
2019-03-29T20:16:58.089Z,19.10
2019-03-29T20:19:31.519Z,20.90
2019-03-29T20:22:03.782Z,18.00
2019-03-29T20:24:34.659Z,15.27
2019-03-29T20:27:10.438Z,14.10
2019-03-29T20:29:43.575Z,14.47
2019-03-29T20:32:17.254Z,13.73
2019-03-29T20:34:47.690Z,14.13
2019-03-29T20:37:18.768Z,12.53
2019-03-29T20:39:49.508Z,12.80
2019-03-29T20:42:20.816Z,13.47
2019-03-29T20:44:51.423Z,13.27
2019-03-29T20:47:22.145Z,12.67
2019-03-29T20:49:52.386Z,13.23
2019-03-29T20:52:22.976Z,13.97
2019-03-29T20:54:56.477Z,15.23
2019-03-29T20:57:39.236Z,15.20
2019-03-29T21:00:23.728Z,14.80
2019-03-29T21:02:56.785Z,13.77
2019-03-29T21:05:22.708Z,14.70
2019-03-29T21:07:54.999Z,14.10
2019-03-29T21:10:28.154Z,14.33
2019-03-29T21:12:58.638Z,14.77
2019-03-29T21:15:28.934Z,15.10
2019-03-29T21:17:59.251Z,14.80
2019-03-29T21:20:29.399Z,16.60
2019-03-29T21:22:59.668Z,18.53
2019-03-29T21:28:40.247Z,20.57
2019-03-29T21:31:13.859Z,19.50
2019-03-29T21:33:49.896Z,19.50
2019-03-29T21:36:21.050Z,20.23
2019-03-29T21:39:05.418Z,19.10
2019-03-29T21:41:36.292Z,17.77
2019-03-29T21:44:06.692Z,16.30
2019-03-29T21:46:38.943Z,16.37
2019-03-29T21:49:22.736Z,15.57
2019-03-29T21:51:52.781Z,15.07
2019-03-29T21:54:23.105Z,15.57
2019-03-29T21:56:56.793Z,13.47
2019-03-29T21:59:34.199Z,14.30
2019-03-29T22:02:09.845Z,14.00
2019-03-29T22:04:47.531Z,14.37
2019-03-29T22:07:19.826Z,13.63
2019-03-29T22:09:50.087Z,13.80
2019-03-29T22:12:20.358Z,12.50
2019-03-29T22:14:50.779Z,13.27
2019-03-29T22:17:31.336Z,13.87
2019-03-29T22:19:52.854Z,13.83
2019-03-29T22:22:23.209Z,13.70
2019-03-29T22:24:53.429Z,12.97
2019-03-29T22:27:25.256Z,13.43
2019-03-29T22:29:56.901Z,15.20
2019-03-29T22:32:26.902Z,15.75
2019-03-29T22:34:57.016Z,16.43
2019-03-29T22:37:27.984Z,16.93
2019-03-29T22:40:06.230Z,14.67
2019-03-29T22:42:37.374Z,14.43
2019-03-29T22:45:08.191Z,15.90
2019-03-29T22:47:38.246Z,15.43
2019-03-29T22:50:09.278Z,17.07
2019-03-29T22:52:49.715Z,14.77
2019-03-29T22:55:29.396Z,15.47
2019-03-29T22:58:00.273Z,15.37
2019-03-29T23:00:47.658Z,16.55
2019-03-29T23:06:26.143Z,16.52
2019-03-29T23:08:56.723Z,15.75
2019-03-29T23:11:26.844Z,17.02
2019-03-29T23:13:59.099Z,16.73
2019-03-29T23:16:30.478Z,15.78
2019-03-29T23:19:08.672Z,16.35
2019-03-29T23:21:49.670Z,15.85
2019-03-29T23:24:43.126Z,15.20
2019-03-29T23:27:16.247Z,15.30
2019-03-29T23:29:50.880Z,16.95
2019-03-29T23:32:20.797Z,15.78
2019-03-29T23:35:18.255Z,16.57
2019-03-29T23:37:56.652Z,16.62
2019-03-29T23:40:35.954Z,18.35
2019-03-29T23:43:12.128Z,15.30
2019-03-29T23:46:13.184Z,16.40
2019-03-29T23:48:46.180Z,15.72
2019-03-29T23:51:40.676Z,17.00
2019-03-29T23:54:11.262Z,16.80
2019-03-29T23:56:55.555Z,17.45
